sensor_id;sensor_type;location;lat;lon;timestamp;P1;durP1;ratioP1;P2;durP2;ratioP2
5684;SDS011;2865;53.114;9.130;2023-12-28T00:00:36;5.80;;;2.60;;
5684;SDS011;2865;53.114;9.130;2023-12-28T00:03:01;15.20;;;2.90;;
5684;SDS011;2865;53.114;9.130;2023-12-28T00:05:27;2.90;;;2.53;;
5684;SDS011;2865;53.114;9.130;2023-12-28T00:07:52;2.63;;;2.43;;
5684;SDS011;2865;53.114;9.130;2023-12-28T00:10:17;4.90;;;2.23;;
5684;SDS011;2865;53.114;9.130;2023-12-28T00:12:43;3.90;;;2.40;;
5684;SDS011;2865;53.114;9.130;2023-12-28T00:15:08;3.53;;;2.60;;
5684;SDS011;2865;53.114;9.130;2023-12-28T00:17:34;2.77;;;2.57;;
5684;SDS011;2865;53.114;9.130;2023-12-28T00:19:59;3.03;;;2.53;;
5684;SDS011;2865;53.114;9.130;2023-12-28T00:22:25;4.13;;;2.40;;
5684;SDS011;2865;53.114;9.130;2023-12-28T00:24:50;3.10;;;2.80;;
5684;SDS011;2865;53.114;9.130;2023-12-28T00:27:15;3.33;;;2.43;;
5684;SDS011;2865;53.114;9.130;2023-12-28T00:29:41;4.17;;;2.33;;
5684;SDS011;2865;53.114;9.130;2023-12-28T00:32:06;2.40;;;2.20;;
5684;SDS011;2865;53.114;9.130;2023-12-28T00:34:31;2.60;;;2.40;;
5684;SDS011;2865;53.114;9.130;2023-12-28T00:36:57;2.70;;;2.50;;
5684;SDS011;2865;53.114;9.130;2023-12-28T00:39:22;3.70;;;3.00;;
5684;SDS011;2865;53.114;9.130;2023-12-28T00:41:48;4.50;;;2.70;;
5684;SDS011;2865;53.114;9.130;2023-12-28T00:44:13;3.63;;;2.60;;
5684;SDS011;2865;53.114;9.130;2023-12-28T00:46:38;3.97;;;2.40;;
5684;SDS011;2865;53.114;9.130;2023-12-28T00:49:04;2.70;;;2.50;;
5684;SDS011;2865;53.114;9.130;2023-12-28T00:51:29;2.70;;;2.50;;
5684;SDS011;2865;53.114;9.130;2023-12-28T00:53:55;3.83;;;2.70;;
5684;SDS011;2865;53.114;9.130;2023-12-28T00:56:20;2.83;;;2.50;;
5684;SDS011;2865;53.114;9.130;2023-12-28T00:58:45;2.97;;;2.53;;
5684;SDS011;2865;53.114;9.130;2023-12-28T01:01:11;2.70;;;2.50;;
5684;SDS011;2865;53.114;9.130;2023-12-28T01:03:36;7.53;;;2.50;;
5684;SDS011;2865;53.114;9.130;2023-12-28T01:06:01;6.30;;;2.53;;
5684;SDS011;2865;53.114;9.130;2023-12-28T01:08:27;5.33;;;2.53;;
5684;SDS011;2865;53.114;9.130;2023-12-28T01:10:52;4.73;;;2.77;;
5684;SDS011;2865;53.114;9.130;2023-12-28T01:13:17;2.90;;;2.60;;
5684;SDS011;2865;53.114;9.130;2023-12-28T01:15:43;5.33;;;3.07;;
5684;SDS011;2865;53.114;9.130;2023-12-28T01:18:08;2.80;;;2.47;;
5684;SDS011;2865;53.114;9.130;2023-12-28T01:20:33;4.63;;;3.97;;
5684;SDS011;2865;53.114;9.130;2023-12-28T01:22:59;3.80;;;2.60;;
5684;SDS011;2865;53.114;9.130;2023-12-28T01:25:24;2.60;;;2.27;;
5684;SDS011;2865;53.114;9.130;2023-12-28T01:27:50;8.03;;;4.13;;
5684;SDS011;2865;53.114;9.130;2023-12-28T01:30:16;3.33;;;2.53;;
5684;SDS011;2865;53.114;9.130;2023-12-28T01:32:41;3.57;;;2.80;;
5684;SDS011;2865;53.114;9.130;2023-12-28T01:35:07;3.00;;;2.80;;
5684;SDS011;2865;53.114;9.130;2023-12-28T01:37:32;3.43;;;2.93;;
5684;SDS011;2865;53.114;9.130;2023-12-28T01:39:58;4.33;;;2.50;;
5684;SDS011;2865;53.114;9.130;2023-12-28T01:42:23;3.13;;;2.33;;
5684;SDS011;2865;53.114;9.130;2023-12-28T01:44:48;3.03;;;2.73;;
5684;SDS011;2865;53.114;9.130;2023-12-28T01:47:14;2.77;;;2.57;;
5684;SDS011;2865;53.114;9.130;2023-12-28T01:49:39;2.83;;;2.60;;
5684;SDS011;2865;53.114;9.130;2023-12-28T01:52:05;5.10;;;2.83;;
5684;SDS011;2865;53.114;9.130;2023-12-28T01:54:30;2.97;;;2.67;;
5684;SDS011;2865;53.114;9.130;2023-12-28T01:56:55;3.10;;;2.80;;
5684;SDS011;2865;53.114;9.130;2023-12-28T01:59:21;4.67;;;2.83;;
5684;SDS011;2865;53.114;9.130;2023-12-28T02:01:46;4.10;;;2.50;;
5684;SDS011;2865;53.114;9.130;2023-12-28T02:04:12;5.10;;;3.00;;
5684;SDS011;2865;53.114;9.130;2023-12-28T02:06:37;3.60;;;3.30;;
5684;SDS011;2865;53.114;9.130;2023-12-28T02:09:02;3.03;;;2.83;;
5684;SDS011;2865;53.114;9.130;2023-12-28T02:11:28;2.90;;;2.60;;
5684;SDS011;2865;53.114;9.130;2023-12-28T02:13:53;3.23;;;2.90;;
5684;SDS011;2865;53.114;9.130;2023-12-28T02:19:03;7.40;;;2.90;;
5684;SDS011;2865;53.114;9.130;2023-12-28T02:21:28;4.20;;;3.27;;
5684;SDS011;2865;53.114;9.130;2023-12-28T02:23:54;3.40;;;3.10;;
5684;SDS011;2865;53.114;9.130;2023-12-28T02:26:19;3.13;;;2.83;;
5684;SDS011;2865;53.114;9.130;2023-12-28T02:28:44;3.90;;;3.00;;
5684;SDS011;2865;53.114;9.130;2023-12-28T02:31:12;3.50;;;3.07;;
5684;SDS011;2865;53.114;9.130;2023-12-28T02:33:36;3.57;;;2.80;;
5684;SDS011;2865;53.114;9.130;2023-12-28T02:36:02;3.50;;;3.20;;
5684;SDS011;2865;53.114;9.130;2023-12-28T02:38:28;4.03;;;2.67;;
5684;SDS011;2865;53.114;9.130;2023-12-28T02:40:52;4.93;;;3.00;;
5684;SDS011;2865;53.114;9.130;2023-12-28T02:43:18;5.20;;;3.27;;
5684;SDS011;2865;53.114;9.130;2023-12-28T02:45:43;3.87;;;2.83;;
5684;SDS011;2865;53.114;9.130;2023-12-28T02:48:09;3.10;;;2.90;;
5684;SDS011;2865;53.114;9.130;2023-12-28T02:50:34;3.80;;;3.23;;
5684;SDS011;2865;53.114;9.130;2023-12-28T02:53:00;3.27;;;2.97;;
5684;SDS011;2865;53.114;9.130;2023-12-28T02:55:25;5.00;;;3.10;;
5684;SDS011;2865;53.114;9.130;2023-12-28T02:57:50;3.07;;;2.87;;
5684;SDS011;2865;53.114;9.130;2023-12-28T03:00:16;3.30;;;3.07;;
5684;SDS011;2865;53.114;9.130;2023-12-28T03:02:41;4.87;;;3.33;;
5684;SDS011;2865;53.114;9.130;2023-12-28T03:05:07;3.30;;;3.10;;
5684;SDS011;2865;53.114;9.130;2023-12-28T03:07:33;3.83;;;3.20;;
5684;SDS011;2865;53.114;9.130;2023-12-28T03:09:58;3.47;;;2.63;;
5684;SDS011;2865;53.114;9.130;2023-12-28T03:12:23;3.37;;;2.83;;
5684;SDS011;2865;53.114;9.130;2023-12-28T03:14:49;8.40;;;2.87;;
5684;SDS011;2865;53.114;9.130;2023-12-28T03:17:14;2.90;;;2.70;;
5684;SDS011;2865;53.114;9.130;2023-12-28T03:19:40;4.40;;;3.40;;
5684;SDS011;2865;53.114;9.130;2023-12-28T03:22:05;5.63;;;3.13;;
5684;SDS011;2865;53.114;9.130;2023-12-28T03:24:30;4.33;;;2.60;;
5684;SDS011;2865;53.114;9.130;2023-12-28T03:26:56;4.57;;;3.10;;
5684;SDS011;2865;53.114;9.130;2023-12-28T03:29:21;3.10;;;2.53;;
5684;SDS011;2865;53.114;9.130;2023-12-28T03:31:46;5.23;;;3.30;;
5684;SDS011;2865;53.114;9.130;2023-12-28T03:34:12;4.87;;;3.10;;
5684;SDS011;2865;53.114;9.130;2023-12-28T03:36:37;3.17;;;2.87;;
5684;SDS011;2865;53.114;9.130;2023-12-28T03:39:02;5.20;;;2.87;;
5684;SDS011;2865;53.114;9.130;2023-12-28T03:41:29;7.43;;;3.37;;
5684;SDS011;2865;53.114;9.130;2023-12-28T03:43:54;5.57;;;5.00;;
5684;SDS011;2865;53.114;9.130;2023-12-28T03:46:20;3.13;;;2.83;;
5684;SDS011;2865;53.114;9.130;2023-12-28T03:48:45;3.30;;;3.00;;
5684;SDS011;2865;53.114;9.130;2023-12-28T03:51:14;3.07;;;2.87;;
5684;SDS011;2865;53.114;9.130;2023-12-28T03:53:39;3.53;;;3.10;;
5684;SDS011;2865;53.114;9.130;2023-12-28T03:56:04;5.03;;;3.57;;
5684;SDS011;2865;53.114;9.130;2023-12-28T03:58:31;3.83;;;3.40;;
5684;SDS011;2865;53.114;9.130;2023-12-28T04:00:56;3.70;;;3.20;;
5684;SDS011;2865;53.114;9.130;2023-12-28T04:03:21;3.73;;;3.43;;
5684;SDS011;2865;53.114;9.130;2023-12-28T04:05:47;5.80;;;3.57;;
5684;SDS011;2865;53.114;9.130;2023-12-28T04:08:12;3.13;;;2.93;;
5684;SDS011;2865;53.114;9.130;2023-12-28T04:10:37;3.73;;;3.43;;
5684;SDS011;2865;53.114;9.130;2023-12-28T04:13:03;3.23;;;3.00;;
5684;SDS011;2865;53.114;9.130;2023-12-28T04:15:28;5.00;;;3.67;;
5684;SDS011;2865;53.114;9.130;2023-12-28T04:17:54;3.50;;;3.13;;
5684;SDS011;2865;53.114;9.130;2023-12-28T04:20:20;5.03;;;3.37;;
5684;SDS011;2865;53.114;9.130;2023-12-28T04:22:45;6.77;;;3.37;;
5684;SDS011;2865;53.114;9.130;2023-12-28T04:25:11;4.47;;;4.07;;
5684;SDS011;2865;53.114;9.130;2023-12-28T04:27:37;4.60;;;3.50;;
5684;SDS011;2865;53.114;9.130;2023-12-28T04:30:02;5.27;;;3.07;;
5684;SDS011;2865;53.114;9.130;2023-12-28T04:32:28;3.50;;;3.17;;
5684;SDS011;2865;53.114;9.130;2023-12-28T04:34:53;4.07;;;3.77;;
5684;SDS011;2865;53.114;9.130;2023-12-28T04:37:19;6.30;;;4.03;;
5684;SDS011;2865;53.114;9.130;2023-12-28T04:39:44;4.37;;;3.53;;
5684;SDS011;2865;53.114;9.130;2023-12-28T04:42:09;3.77;;;3.13;;
5684;SDS011;2865;53.114;9.130;2023-12-28T04:44:37;4.63;;;3.30;;
5684;SDS011;2865;53.114;9.130;2023-12-28T04:47:02;4.27;;;3.53;;
5684;SDS011;2865;53.114;9.130;2023-12-28T04:49:28;7.17;;;3.30;;
5684;SDS011;2865;53.114;9.130;2023-12-28T04:51:53;4.20;;;3.03;;
5684;SDS011;2865;53.114;9.130;2023-12-28T04:54:18;10.10;;;3.20;;
5684;SDS011;2865;53.114;9.130;2023-12-28T04:56:44;3.43;;;3.13;;
5684;SDS011;2865;53.114;9.130;2023-12-28T04:59:09;5.00;;;3.70;;
5684;SDS011;2865;53.114;9.130;2023-12-28T05:01:40;10.53;;;3.77;;
5684;SDS011;2865;53.114;9.130;2023-12-28T05:04:00;6.73;;;3.57;;
5684;SDS011;2865;53.114;9.130;2023-12-28T05:06:27;6.33;;;4.07;;
5684;SDS011;2865;53.114;9.130;2023-12-28T05:08:51;5.93;;;4.03;;
5684;SDS011;2865;53.114;9.130;2023-12-28T05:11:16;4.73;;;3.23;;
5684;SDS011;2865;53.114;9.130;2023-12-28T05:13:41;6.57;;;4.30;;
5684;SDS011;2865;53.114;9.130;2023-12-28T05:16:07;3.97;;;3.37;;
5684;SDS011;2865;53.114;9.130;2023-12-28T05:18:32;4.43;;;3.30;;
5684;SDS011;2865;53.114;9.130;2023-12-28T05:20:58;5.83;;;3.50;;
5684;SDS011;2865;53.114;9.130;2023-12-28T05:23:23;11.43;;;3.70;;
5684;SDS011;2865;53.114;9.130;2023-12-28T05:25:48;4.83;;;3.80;;
5684;SDS011;2865;53.114;9.130;2023-12-28T05:28:14;4.10;;;3.30;;
5684;SDS011;2865;53.114;9.130;2023-12-28T05:30:39;3.80;;;3.40;;
5684;SDS011;2865;53.114;9.130;2023-12-28T05:33:04;3.53;;;3.23;;
5684;SDS011;2865;53.114;9.130;2023-12-28T05:35:30;8.43;;;3.97;;
5684;SDS011;2865;53.114;9.130;2023-12-28T05:37:55;4.27;;;3.70;;
5684;SDS011;2865;53.114;9.130;2023-12-28T05:40:21;5.03;;;3.43;;
5684;SDS011;2865;53.114;9.130;2023-12-28T05:42:46;6.13;;;3.50;;
5684;SDS011;2865;53.114;9.130;2023-12-28T05:45:11;4.47;;;3.50;;
5684;SDS011;2865;53.114;9.130;2023-12-28T05:47:37;7.70;;;3.53;;
5684;SDS011;2865;53.114;9.130;2023-12-28T05:50:02;5.03;;;3.80;;
5684;SDS011;2865;53.114;9.130;2023-12-28T05:52:28;5.53;;;3.57;;
5684;SDS011;2865;53.114;9.130;2023-12-28T05:54:54;6.40;;;3.80;;
5684;SDS011;2865;53.114;9.130;2023-12-28T05:57:19;7.60;;;3.80;;
5684;SDS011;2865;53.114;9.130;2023-12-28T05:59:44;5.60;;;4.00;;
5684;SDS011;2865;53.114;9.130;2023-12-28T06:02:10;7.47;;;3.23;;
5684;SDS011;2865;53.114;9.130;2023-12-28T06:04:35;3.07;;;2.83;;
5684;SDS011;2865;53.114;9.130;2023-12-28T06:07:02;3.73;;;3.43;;
5684;SDS011;2865;53.114;9.130;2023-12-28T06:09:26;3.97;;;3.33;;
5684;SDS011;2865;53.114;9.130;2023-12-28T06:11:51;5.43;;;3.33;;
5684;SDS011;2865;53.114;9.130;2023-12-28T06:14:17;4.47;;;3.37;;
5684;SDS011;2865;53.114;9.130;2023-12-28T06:16:42;3.10;;;2.80;;
5684;SDS011;2865;53.114;9.130;2023-12-28T06:19:08;3.73;;;2.90;;
5684;SDS011;2865;53.114;9.130;2023-12-28T06:21:33;5.27;;;3.03;;
5684;SDS011;2865;53.114;9.130;2023-12-28T06:23:58;4.30;;;3.00;;
5684;SDS011;2865;53.114;9.130;2023-12-28T06:26:24;4.50;;;3.80;;
5684;SDS011;2865;53.114;9.130;2023-12-28T06:28:49;3.50;;;3.20;;
5684;SDS011;2865;53.114;9.130;2023-12-28T06:31:14;6.50;;;3.30;;
5684;SDS011;2865;53.114;9.130;2023-12-28T06:33:40;5.63;;;3.00;;
5684;SDS011;2865;53.114;9.130;2023-12-28T06:36:06;12.47;;;3.97;;
5684;SDS011;2865;53.114;9.130;2023-12-28T06:38:31;8.50;;;3.50;;
5684;SDS011;2865;53.114;9.130;2023-12-28T06:40:56;6.70;;;3.40;;
5684;SDS011;2865;53.114;9.130;2023-12-28T06:43:21;7.20;;;3.20;;
5684;SDS011;2865;53.114;9.130;2023-12-28T06:45:47;6.23;;;3.27;;
5684;SDS011;2865;53.114;9.130;2023-12-28T06:48:12;4.33;;;3.17;;
5684;SDS011;2865;53.114;9.130;2023-12-28T06:50:38;4.03;;;2.87;;
5684;SDS011;2865;53.114;9.130;2023-12-28T06:53:03;3.80;;;2.80;;
5684;SDS011;2865;53.114;9.130;2023-12-28T06:55:29;3.57;;;3.17;;
5684;SDS011;2865;53.114;9.130;2023-12-28T06:57:54;5.00;;;3.13;;
5684;SDS011;2865;53.114;9.130;2023-12-28T07:00:19;6.73;;;3.53;;
5684;SDS011;2865;53.114;9.130;2023-12-28T07:02:45;4.03;;;3.07;;
5684;SDS011;2865;53.114;9.130;2023-12-28T07:05:10;9.23;;;3.07;;
5684;SDS011;2865;53.114;9.130;2023-12-28T07:07:35;6.10;;;3.63;;
5684;SDS011;2865;53.114;9.130;2023-12-28T07:10:01;4.73;;;2.60;;
5684;SDS011;2865;53.114;9.130;2023-12-28T07:12:27;6.50;;;3.67;;
5684;SDS011;2865;53.114;9.130;2023-12-28T07:14:53;3.90;;;2.80;;
5684;SDS011;2865;53.114;9.130;2023-12-28T07:17:18;3.80;;;2.70;;
5684;SDS011;2865;53.114;9.130;2023-12-28T07:19:43;7.13;;;2.77;;
5684;SDS011;2865;53.114;9.130;2023-12-28T07:22:09;5.40;;;3.20;;
5684;SDS011;2865;53.114;9.130;2023-12-28T07:24:34;8.73;;;3.20;;
5684;SDS011;2865;53.114;9.130;2023-12-28T07:26:59;4.17;;;2.97;;
5684;SDS011;2865;53.114;9.130;2023-12-28T07:29:25;7.83;;;2.83;;
5684;SDS011;2865;53.114;9.130;2023-12-28T07:31:50;3.53;;;3.07;;
5684;SDS011;2865;53.114;9.130;2023-12-28T07:34:16;8.90;;;3.00;;
5684;SDS011;2865;53.114;9.130;2023-12-28T07:36:41;4.57;;;2.90;;
5684;SDS011;2865;53.114;9.130;2023-12-28T07:39:06;4.50;;;2.67;;
5684;SDS011;2865;53.114;9.130;2023-12-28T07:41:32;5.47;;;3.10;;
5684;SDS011;2865;53.114;9.130;2023-12-28T07:43:57;6.07;;;2.67;;
5684;SDS011;2865;53.114;9.130;2023-12-28T07:46:22;5.00;;;2.70;;
5684;SDS011;2865;53.114;9.130;2023-12-28T07:48:48;6.10;;;2.33;;
5684;SDS011;2865;53.114;9.130;2023-12-28T07:51:13;4.83;;;3.07;;
5684;SDS011;2865;53.114;9.130;2023-12-28T07:53:39;6.50;;;3.07;;
5684;SDS011;2865;53.114;9.130;2023-12-28T07:56:04;6.33;;;2.60;;
5684;SDS011;2865;53.114;9.130;2023-12-28T07:58:31;8.57;;;2.80;;
5684;SDS011;2865;53.114;9.130;2023-12-28T08:00:56;8.70;;;3.10;;
5684;SDS011;2865;53.114;9.130;2023-12-28T08:03:21;5.07;;;2.97;;
5684;SDS011;2865;53.114;9.130;2023-12-28T08:05:47;8.83;;;3.00;;
5684;SDS011;2865;53.114;9.130;2023-12-28T08:08:12;7.27;;;2.80;;
5684;SDS011;2865;53.114;9.130;2023-12-28T08:10:37;6.23;;;2.80;;
5684;SDS011;2865;53.114;9.130;2023-12-28T08:13:03;9.57;;;2.27;;
5684;SDS011;2865;53.114;9.130;2023-12-28T08:15:28;5.77;;;2.87;;
5684;SDS011;2865;53.114;9.130;2023-12-28T08:17:54;4.93;;;2.10;;
5684;SDS011;2865;53.114;9.130;2023-12-28T08:20:19;7.13;;;2.40;;
5684;SDS011;2865;53.114;9.130;2023-12-28T08:22:45;6.93;;;2.93;;
5684;SDS011;2865;53.114;9.130;2023-12-28T08:25:10;7.07;;;2.13;;
5684;SDS011;2865;53.114;9.130;2023-12-28T08:27:36;4.83;;;2.83;;
5684;SDS011;2865;53.114;9.130;2023-12-28T08:30:01;11.97;;;2.87;;
5684;SDS011;2865;53.114;9.130;2023-12-28T08:32:27;5.97;;;2.53;;
5684;SDS011;2865;53.114;9.130;2023-12-28T08:34:52;5.37;;;2.40;;
5684;SDS011;2865;53.114;9.130;2023-12-28T08:37:17;3.93;;;2.13;;
5684;SDS011;2865;53.114;9.130;2023-12-28T08:39:42;8.10;;;2.60;;
5684;SDS011;2865;53.114;9.130;2023-12-28T08:42:08;7.20;;;2.17;;
5684;SDS011;2865;53.114;9.130;2023-12-28T08:44:33;12.47;;;3.23;;
5684;SDS011;2865;53.114;9.130;2023-12-28T08:46:58;8.60;;;2.80;;
5684;SDS011;2865;53.114;9.130;2023-12-28T08:49:24;6.83;;;3.27;;
5684;SDS011;2865;53.114;9.130;2023-12-28T08:51:49;4.83;;;2.30;;
5684;SDS011;2865;53.114;9.130;2023-12-28T08:54:14;11.97;;;2.40;;
5684;SDS011;2865;53.114;9.130;2023-12-28T08:56:40;6.97;;;2.30;;
5684;SDS011;2865;53.114;9.130;2023-12-28T08:59:05;8.00;;;2.87;;
5684;SDS011;2865;53.114;9.130;2023-12-28T09:01:30;7.97;;;2.33;;
5684;SDS011;2865;53.114;9.130;2023-12-28T09:03:56;4.70;;;2.50;;
5684;SDS011;2865;53.114;9.130;2023-12-28T09:06:22;8.30;;;2.70;;
5684;SDS011;2865;53.114;9.130;2023-12-28T09:08:48;11.50;;;2.70;;
5684;SDS011;2865;53.114;9.130;2023-12-28T09:11:12;9.73;;;2.90;;
5684;SDS011;2865;53.114;9.130;2023-12-28T09:13:38;9.97;;;2.57;;
5684;SDS011;2865;53.114;9.130;2023-12-28T09:16:03;5.43;;;2.67;;
5684;SDS011;2865;53.114;9.130;2023-12-28T09:18:28;11.67;;;2.90;;
5684;SDS011;2865;53.114;9.130;2023-12-28T09:20:54;6.50;;;2.40;;
5684;SDS011;2865;53.114;9.130;2023-12-28T09:23:19;6.17;;;2.57;;
5684;SDS011;2865;53.114;9.130;2023-12-28T09:25:44;8.03;;;3.13;;
5684;SDS011;2865;53.114;9.130;2023-12-28T09:28:10;6.30;;;2.63;;
5684;SDS011;2865;53.114;9.130;2023-12-28T09:30:35;6.30;;;3.00;;
5684;SDS011;2865;53.114;9.130;2023-12-28T09:33:00;8.97;;;2.77;;
5684;SDS011;2865;53.114;9.130;2023-12-28T09:35:26;15.60;;;3.60;;
5684;SDS011;2865;53.114;9.130;2023-12-28T09:37:51;17.80;;;3.73;;
5684;SDS011;2865;53.114;9.130;2023-12-28T09:40:16;10.50;;;2.93;;
5684;SDS011;2865;53.114;9.130;2023-12-28T09:42:46;8.13;;;2.43;;
5684;SDS011;2865;53.114;9.130;2023-12-28T09:45:08;14.10;;;2.97;;
5684;SDS011;2865;53.114;9.130;2023-12-28T09:47:33;12.53;;;2.77;;
5684;SDS011;2865;53.114;9.130;2023-12-28T09:49:59;5.50;;;2.20;;
5684;SDS011;2865;53.114;9.130;2023-12-28T09:52:24;9.00;;;2.80;;
5684;SDS011;2865;53.114;9.130;2023-12-28T09:54:50;14.80;;;3.40;;
5684;SDS011;2865;53.114;9.130;2023-12-28T09:57:15;8.83;;;3.00;;
5684;SDS011;2865;53.114;9.130;2023-12-28T09:59:41;7.63;;;3.67;;
5684;SDS011;2865;53.114;9.130;2023-12-28T10:02:06;4.87;;;2.30;;
5684;SDS011;2865;53.114;9.130;2023-12-28T10:04:32;7.47;;;2.50;;
5684;SDS011;2865;53.114;9.130;2023-12-28T10:06:57;5.03;;;2.23;;
5684;SDS011;2865;53.114;9.130;2023-12-28T10:09:22;7.50;;;2.30;;
5684;SDS011;2865;53.114;9.130;2023-12-28T10:11:48;10.83;;;2.93;;
5684;SDS011;2865;53.114;9.130;2023-12-28T10:14:13;7.43;;;2.87;;
5684;SDS011;2865;53.114;9.130;2023-12-28T10:16:40;9.60;;;2.67;;
5684;SDS011;2865;53.114;9.130;2023-12-28T10:19:05;7.53;;;2.67;;
5684;SDS011;2865;53.114;9.130;2023-12-28T10:21:30;6.20;;;3.00;;
5684;SDS011;2865;53.114;9.130;2023-12-28T10:23:56;4.00;;;2.33;;
5684;SDS011;2865;53.114;9.130;2023-12-28T10:26:21;11.97;;;3.30;;
5684;SDS011;2865;53.114;9.130;2023-12-28T10:28:46;12.57;;;2.97;;
5684;SDS011;2865;53.114;9.130;2023-12-28T10:31:12;11.27;;;2.80;;
5684;SDS011;2865;53.114;9.130;2023-12-28T10:33:37;8.40;;;3.30;;
5684;SDS011;2865;53.114;9.130;2023-12-28T10:36:05;17.10;;;4.47;;
5684;SDS011;2865;53.114;9.130;2023-12-28T10:38:31;9.23;;;2.60;;
5684;SDS011;2865;53.114;9.130;2023-12-28T10:40:56;10.87;;;2.50;;
5684;SDS011;2865;53.114;9.130;2023-12-28T10:43:21;13.03;;;4.20;;
5684;SDS011;2865;53.114;9.130;2023-12-28T10:45:46;9.00;;;2.40;;
5684;SDS011;2865;53.114;9.130;2023-12-28T10:48:12;17.37;;;3.37;;
5684;SDS011;2865;53.114;9.130;2023-12-28T10:50:38;13.53;;;3.20;;
5684;SDS011;2865;53.114;9.130;2023-12-28T10:53:08;10.17;;;2.87;;
5684;SDS011;2865;53.114;9.130;2023-12-28T10:55:32;10.67;;;2.93;;
5684;SDS011;2865;53.114;9.130;2023-12-28T10:58:11;11.63;;;3.60;;
5684;SDS011;2865;53.114;9.130;2023-12-28T11:00:36;9.87;;;2.80;;
5684;SDS011;2865;53.114;9.130;2023-12-28T11:03:02;11.07;;;2.63;;
5684;SDS011;2865;53.114;9.130;2023-12-28T11:05:27;9.10;;;2.60;;
5684;SDS011;2865;53.114;9.130;2023-12-28T11:07:53;7.30;;;2.57;;
5684;SDS011;2865;53.114;9.130;2023-12-28T11:10:18;8.37;;;2.93;;
5684;SDS011;2865;53.114;9.130;2023-12-28T11:12:43;11.77;;;3.17;;
5684;SDS011;2865;53.114;9.130;2023-12-28T11:15:09;12.40;;;3.10;;
5684;SDS011;2865;53.114;9.130;2023-12-28T11:17:35;16.10;;;3.70;;
5684;SDS011;2865;53.114;9.130;2023-12-28T11:20:00;8.40;;;3.57;;
5684;SDS011;2865;53.114;9.130;2023-12-28T11:22:25;8.30;;;2.60;;
5684;SDS011;2865;53.114;9.130;2023-12-28T11:24:52;11.10;;;3.50;;
5684;SDS011;2865;53.114;9.130;2023-12-28T11:27:17;11.63;;;3.20;;
5684;SDS011;2865;53.114;9.130;2023-12-28T11:29:42;7.60;;;3.10;;
5684;SDS011;2865;53.114;9.130;2023-12-28T11:32:08;10.03;;;3.00;;
5684;SDS011;2865;53.114;9.130;2023-12-28T11:34:33;7.73;;;3.13;;
5684;SDS011;2865;53.114;9.130;2023-12-28T11:37:00;8.20;;;2.30;;
5684;SDS011;2865;53.114;9.130;2023-12-28T11:39:29;15.67;;;2.93;;
5684;SDS011;2865;53.114;9.130;2023-12-28T11:41:51;8.90;;;2.63;;
5684;SDS011;2865;53.114;9.130;2023-12-28T11:44:17;12.80;;;3.30;;
5684;SDS011;2865;53.114;9.130;2023-12-28T11:46:42;7.70;;;2.53;;
5684;SDS011;2865;53.114;9.130;2023-12-28T11:49:08;13.90;;;3.53;;
5684;SDS011;2865;53.114;9.130;2023-12-28T11:51:35;8.13;;;2.50;;
5684;SDS011;2865;53.114;9.130;2023-12-28T11:53:59;10.27;;;2.73;;
5684;SDS011;2865;53.114;9.130;2023-12-28T11:56:25;11.63;;;3.00;;
5684;SDS011;2865;53.114;9.130;2023-12-28T11:58:50;18.47;;;2.80;;
5684;SDS011;2865;53.114;9.130;2023-12-28T12:01:16;11.80;;;3.53;;
5684;SDS011;2865;53.114;9.130;2023-12-28T12:03:41;22.33;;;3.60;;
5684;SDS011;2865;53.114;9.130;2023-12-28T12:06:06;9.03;;;2.57;;
5684;SDS011;2865;53.114;9.130;2023-12-28T12:08:32;15.50;;;3.57;;
5684;SDS011;2865;53.114;9.130;2023-12-28T12:11:00;15.43;;;4.17;;
5684;SDS011;2865;53.114;9.130;2023-12-28T12:13:26;12.80;;;3.60;;
5684;SDS011;2865;53.114;9.130;2023-12-28T12:15:51;10.33;;;3.97;;
5684;SDS011;2865;53.114;9.130;2023-12-28T12:18:17;12.27;;;2.80;;
5684;SDS011;2865;53.114;9.130;2023-12-28T12:20:43;13.97;;;3.30;;
5684;SDS011;2865;53.114;9.130;2023-12-28T12:23:08;8.07;;;3.43;;
5684;SDS011;2865;53.114;9.130;2023-12-28T12:25:33;7.37;;;2.60;;
5684;SDS011;2865;53.114;9.130;2023-12-28T12:27:58;10.00;;;3.10;;
5684;SDS011;2865;53.114;9.130;2023-12-28T12:30:24;16.87;;;3.53;;
5684;SDS011;2865;53.114;9.130;2023-12-28T12:32:49;16.43;;;2.77;;
5684;SDS011;2865;53.114;9.130;2023-12-28T12:35:15;8.83;;;2.73;;
5684;SDS011;2865;53.114;9.130;2023-12-28T12:37:40;13.37;;;3.20;;
5684;SDS011;2865;53.114;9.130;2023-12-28T12:40:06;8.07;;;2.30;;
5684;SDS011;2865;53.114;9.130;2023-12-28T12:42:32;8.53;;;2.90;;
5684;SDS011;2865;53.114;9.130;2023-12-28T12:44:57;13.80;;;3.17;;
5684;SDS011;2865;53.114;9.130;2023-12-28T12:47:23;12.60;;;2.90;;
5684;SDS011;2865;53.114;9.130;2023-12-28T12:49:51;8.23;;;2.90;;
5684;SDS011;2865;53.114;9.130;2023-12-28T12:52:14;9.33;;;2.83;;
5684;SDS011;2865;53.114;9.130;2023-12-28T12:54:40;20.50;;;3.67;;
5684;SDS011;2865;53.114;9.130;2023-12-28T12:57:05;8.70;;;2.43;;
5684;SDS011;2865;53.114;9.130;2023-12-28T12:59:30;8.10;;;2.53;;
5684;SDS011;2865;53.114;9.130;2023-12-28T13:01:56;9.63;;;2.67;;
5684;SDS011;2865;53.114;9.130;2023-12-28T13:04:21;9.30;;;3.47;;
5684;SDS011;2865;53.114;9.130;2023-12-28T13:06:46;15.87;;;3.20;;
5684;SDS011;2865;53.114;9.130;2023-12-28T13:09:12;18.00;;;3.13;;
5684;SDS011;2865;53.114;9.130;2023-12-28T13:11:37;17.87;;;3.10;;
5684;SDS011;2865;53.114;9.130;2023-12-28T13:14:03;10.10;;;2.83;;
5684;SDS011;2865;53.114;9.130;2023-12-28T13:16:28;15.53;;;2.50;;
5684;SDS011;2865;53.114;9.130;2023-12-28T13:18:53;12.67;;;3.10;;
5684;SDS011;2865;53.114;9.130;2023-12-28T13:21:19;10.30;;;2.53;;
5684;SDS011;2865;53.114;9.130;2023-12-28T13:23:44;16.13;;;3.47;;
5684;SDS011;2865;53.114;9.130;2023-12-28T13:26:09;15.50;;;3.50;;
5684;SDS011;2865;53.114;9.130;2023-12-28T13:28:35;13.53;;;2.90;;
5684;SDS011;2865;53.114;9.130;2023-12-28T13:31:00;10.63;;;2.50;;
5684;SDS011;2865;53.114;9.130;2023-12-28T13:33:25;8.83;;;2.87;;
5684;SDS011;2865;53.114;9.130;2023-12-28T13:35:51;18.63;;;3.10;;
5684;SDS011;2865;53.114;9.130;2023-12-28T13:38:16;7.00;;;2.93;;
5684;SDS011;2865;53.114;9.130;2023-12-28T13:40:42;14.53;;;2.80;;
5684;SDS011;2865;53.114;9.130;2023-12-28T13:43:07;9.87;;;4.10;;
5684;SDS011;2865;53.114;9.130;2023-12-28T13:45:33;11.27;;;2.77;;
5684;SDS011;2865;53.114;9.130;2023-12-28T13:47:58;7.60;;;2.23;;
5684;SDS011;2865;53.114;9.130;2023-12-28T13:50:24;9.90;;;3.33;;
5684;SDS011;2865;53.114;9.130;2023-12-28T13:52:49;8.13;;;3.00;;
5684;SDS011;2865;53.114;9.130;2023-12-28T13:55:14;12.20;;;2.57;;
5684;SDS011;2865;53.114;9.130;2023-12-28T13:57:40;17.87;;;3.33;;
5684;SDS011;2865;53.114;9.130;2023-12-28T14:00:05;14.33;;;2.57;;
5684;SDS011;2865;53.114;9.130;2023-12-28T14:02:32;10.70;;;3.10;;
5684;SDS011;2865;53.114;9.130;2023-12-28T14:04:57;17.97;;;2.57;;
5684;SDS011;2865;53.114;9.130;2023-12-28T14:07:23;7.07;;;2.90;;
5684;SDS011;2865;53.114;9.130;2023-12-28T14:09:48;10.13;;;3.17;;
5684;SDS011;2865;53.114;9.130;2023-12-28T14:12:13;10.03;;;2.27;;
5684;SDS011;2865;53.114;9.130;2023-12-28T14:14:38;13.83;;;3.30;;
5684;SDS011;2865;53.114;9.130;2023-12-28T14:17:04;13.83;;;3.10;;
5684;SDS011;2865;53.114;9.130;2023-12-28T14:19:29;11.87;;;3.90;;
5684;SDS011;2865;53.114;9.130;2023-12-28T14:21:55;11.03;;;2.80;;
5684;SDS011;2865;53.114;9.130;2023-12-28T14:24:21;16.80;;;4.10;;
5684;SDS011;2865;53.114;9.130;2023-12-28T14:26:47;12.10;;;3.70;;
5684;SDS011;2865;53.114;9.130;2023-12-28T14:29:12;14.67;;;2.50;;
5684;SDS011;2865;53.114;9.130;2023-12-28T14:31:38;12.23;;;2.93;;
5684;SDS011;2865;53.114;9.130;2023-12-28T14:34:04;9.17;;;3.20;;
5684;SDS011;2865;53.114;9.130;2023-12-28T14:36:32;16.63;;;4.60;;
5684;SDS011;2865;53.114;9.130;2023-12-28T14:38:59;11.60;;;2.97;;
5684;SDS011;2865;53.114;9.130;2023-12-28T14:41:24;13.80;;;3.17;;
5684;SDS011;2865;53.114;9.130;2023-12-28T14:43:49;14.10;;;3.20;;
5684;SDS011;2865;53.114;9.130;2023-12-28T14:46:15;10.23;;;3.40;;
5684;SDS011;2865;53.114;9.130;2023-12-28T14:48:40;12.73;;;3.20;;
5684;SDS011;2865;53.114;9.130;2023-12-28T14:51:05;14.57;;;3.50;;
5684;SDS011;2865;53.114;9.130;2023-12-28T14:53:31;12.10;;;2.93;;
5684;SDS011;2865;53.114;9.130;2023-12-28T14:55:56;16.47;;;2.90;;
5684;SDS011;2865;53.114;9.130;2023-12-28T14:58:22;12.90;;;2.90;;
5684;SDS011;2865;53.114;9.130;2023-12-28T15:00:48;11.63;;;3.07;;
5684;SDS011;2865;53.114;9.130;2023-12-28T15:03:13;14.80;;;3.30;;